sensor_id;sensor_type;location;lat;lon;timestamp;pressure;altitude;pressure_sealevel;temperature;humidity
44198;BME280;30157;55.512;37.764;2023-12-22T00:02:22;97765.81;;;-1.20;100.00
44198;BME280;30157;55.512;37.764;2023-12-22T00:04:49;97749.53;;;-1.36;100.00
44198;BME280;30157;55.512;37.764;2023-12-22T00:07:14;97752.13;;;-1.29;100.00
44198;BME280;30157;55.512;37.764;2023-12-22T00:09:40;97768.41;;;-1.12;100.00
44198;BME280;30157;55.512;37.764;2023-12-22T00:12:06;97759.91;;;-1.17;100.00
44198;BME280;30157;55.512;37.764;2023-12-22T00:14:32;97695.91;;;-1.54;100.00
44198;BME280;30157;55.512;37.764;2023-12-22T00:16:57;97755.63;;;-1.20;100.00
44198;BME280;30157;55.512;37.764;2023-12-22T00:19:23;97750.47;;;-1.24;100.00
44198;BME280;30157;55.512;37.764;2023-12-22T00:21:49;97759.84;;;-1.20;100.00
44198;BME280;30157;55.512;37.764;2023-12-22T00:24:15;97700.09;;;-1.61;100.00
44198;BME280;30157;55.512;37.764;2023-12-22T00:26:40;97758.09;;;-1.29;100.00
44198;BME280;30157;55.512;37.764;2023-12-22T00:29:06;97747.94;;;-1.23;100.00
44198;BME280;30157;55.512;37.764;2023-12-22T00:31:32;97727.47;;;-1.35;100.00
44198;BME280;30157;55.512;37.764;2023-12-22T00:33:58;97701.03;;;-1.53;100.00
44198;BME280;30157;55.512;37.764;2023-12-22T00:36:23;97713.81;;;-1.48;100.00
44198;BME280;30157;55.512;37.764;2023-12-22T00:38:50;97746.28;;;-1.17;100.00
44198;BME280;30157;55.512;37.764;2023-12-22T00:41:16;97732.63;;;-1.30;100.00
44198;BME280;30157;55.512;37.764;2023-12-22T00:43:41;97712.19;;;-1.38;100.00
44198;BME280;30157;55.512;37.764;2023-12-22T00:46:07;97591.97;;;-2.11;100.00
44198;BME280;30157;55.512;37.764;2023-12-22T00:48:33;97742.03;;;-1.20;100.00
44198;BME280;30157;55.512;37.764;2023-12-22T00:50:59;97725.81;;;-1.31;100.00
44198;BME280;30157;55.512;37.764;2023-12-22T00:53:24;97738.72;;;-1.14;100.00
44198;BME280;30157;55.512;37.764;2023-12-22T00:55:51;97736.16;;;-1.13;100.00
44198;BME280;30157;55.512;37.764;2023-12-22T00:58:16;97721.66;;;-1.20;100.00
44198;BME280;30157;55.512;37.764;2023-12-22T01:00:42;97743.00;;;-1.09;100.00
44198;BME280;30157;55.512;37.764;2023-12-22T01:03:08;97743.84;;;-1.07;100.00
44198;BME280;30157;55.512;37.764;2023-12-22T01:05:33;97743.00;;;-1.07;100.00
44198;BME280;30157;55.512;37.764;2023-12-22T01:07:59;97699.53;;;-1.29;100.00
44198;BME280;30157;55.512;37.764;2023-12-22T01:10:25;97732.75;;;-1.12;100.00
44198;BME280;30157;55.512;37.764;2023-12-22T01:12:51;97746.31;;;-1.16;100.00
44198;BME280;30157;55.512;37.764;2023-12-22T01:15:16;97731.06;;;-1.14;100.00
44198;BME280;30157;55.512;37.764;2023-12-22T01:17:42;97730.19;;;-1.18;100.00
44198;BME280;30157;55.512;37.764;2023-12-22T01:20:08;97723.31;;;-1.27;100.00
44198;BME280;30157;55.512;37.764;2023-12-22T01:22:34;97736.09;;;-1.22;100.00
44198;BME280;30157;55.512;37.764;2023-12-22T01:25:04;97734.34;;;-1.26;100.00
44198;BME280;30157;55.512;37.764;2023-12-22T01:27:31;97741.13;;;-1.25;100.00
44198;BME280;30157;55.512;37.764;2023-12-22T01:29:57;97727.47;;;-1.35;100.00
44198;BME280;30157;55.512;37.764;2023-12-22T01:32:22;97729.22;;;-1.29;100.00
44198;BME280;30157;55.512;37.764;2023-12-22T01:34:48;97666.94;;;-1.70;100.00
44198;BME280;30157;55.512;37.764;2023-12-22T01:37:14;97743.63;;;-1.31;100.00
44198;BME280;30157;55.512;37.764;2023-12-22T01:39:40;97738.47;;;-1.38;100.00
44198;BME280;30157;55.512;37.764;2023-12-22T01:42:05;97746.06;;;-1.44;100.00
44198;BME280;30157;55.512;37.764;2023-12-22T01:44:31;97654.91;;;-1.85;100.00
44198;BME280;30157;55.512;37.764;2023-12-22T01:46:57;97703.53;;;-1.59;100.00
44198;BME280;30157;55.512;37.764;2023-12-22T01:49:23;97732.47;;;-1.43;100.00
44198;BME280;30157;55.512;37.764;2023-12-22T01:51:51;97669.31;;;-1.87;100.00
44198;BME280;30157;55.512;37.764;2023-12-22T01:54:17;97730.69;;;-1.55;100.00
44198;BME280;30157;55.512;37.764;2023-12-22T01:56:43;97690.66;;;-1.71;100.00
44198;BME280;30157;55.512;37.764;2023-12-22T01:59:10;97740.97;;;-1.44;100.00
44198;BME280;30157;55.512;37.764;2023-12-22T02:01:37;97728.91;;;-1.60;100.00
44198;BME280;30157;55.512;37.764;2023-12-22T02:04:03;97696.53;;;-1.78;100.00
44198;BME280;30157;55.512;37.764;2023-12-22T02:06:30;97731.63;;;-1.45;100.00
44198;BME280;30157;55.512;37.764;2023-12-22T02:08:58;97729.13;;;-1.40;100.00
44198;BME280;30157;55.512;37.764;2023-12-22T02:11:23;97707.84;;;-1.50;100.00
44198;BME280;30157;55.512;37.764;2023-12-22T02:13:49;97690.75;;;-1.62;100.00
44198;BME280;30157;55.512;37.764;2023-12-22T02:16:35;97693.41;;;-1.51;100.00
44198;BME280;30157;55.512;37.764;2023-12-22T02:19:27;97707.75;;;-1.59;100.00
44198;BME280;30157;55.512;37.764;2023-12-22T02:22:02;97719.63;;;-1.58;100.00
44198;BME280;30157;55.512;37.764;2023-12-22T02:24:29;97662.56;;;-1.82;100.00
44198;BME280;30157;55.512;37.764;2023-12-22T02:29:32;97704.53;;;-1.40;100.00
44198;BME280;30157;55.512;37.764;2023-12-22T02:32:06;97692.59;;;-1.47;100.00
44198;BME280;30157;55.512;37.764;2023-12-22T02:34:36;97709.53;;;-1.50;100.00
44198;BME280;30157;55.512;37.764;2023-12-22T02:37:05;97633.66;;;-1.93;100.00
44198;BME280;30157;55.512;37.764;2023-12-22T02:39:33;97708.72;;;-1.48;100.00
44198;BME280;30157;55.512;37.764;2023-12-22T02:41:59;97697.63;;;-1.53;100.00
44198;BME280;30157;55.512;37.764;2023-12-22T02:44:26;97708.63;;;-1.57;100.00
44198;BME280;30157;55.512;37.764;2023-12-22T02:46:52;97684.81;;;-1.65;100.00
44198;BME280;30157;55.512;37.764;2023-12-22T02:49:17;97706.13;;;-1.51;100.00
44198;BME280;30157;55.512;37.764;2023-12-22T02:51:44;97703.63;;;-1.48;100.00
44198;BME280;30157;55.512;37.764;2023-12-22T02:54:10;97703.63;;;-1.45;100.00
44198;BME280;30157;55.512;37.764;2023-12-22T02:56:36;97702.84;;;-1.38;100.00
44198;BME280;30157;55.512;37.764;2023-12-22T02:59:01;97696.91;;;-1.41;100.00
44198;BME280;30157;55.512;37.764;2023-12-22T03:01:27;97676.38;;;-1.57;100.00
44198;BME280;30157;55.512;37.764;2023-12-22T03:03:53;97692.63;;;-1.44;100.00
44198;BME280;30157;55.512;37.764;2023-12-22T03:06:18;97700.25;;;-1.44;100.00
44198;BME280;30157;55.512;37.764;2023-12-22T03:08:44;97699.38;;;-1.49;100.00
44198;BME280;30157;55.512;37.764;2023-12-22T03:11:10;97640.47;;;-1.88;100.00
44198;BME280;30157;55.512;37.764;2023-12-22T03:13:35;97695.16;;;-1.45;100.00
44198;BME280;30157;55.512;37.764;2023-12-22T03:16:01;97693.47;;;-1.45;100.00
44198;BME280;30157;55.512;37.764;2023-12-22T03:18:27;97670.41;;;-1.60;100.00
44198;BME280;30157;55.512;37.764;2023-12-22T03:20:53;97690.03;;;-1.48;100.00
44198;BME280;30157;55.512;37.764;2023-12-22T03:23:18;97682.38;;;-1.52;100.00
44198;BME280;30157;55.512;37.764;2023-12-22T03:25:44;97655.94;;;-1.66;100.00
44198;BME280;30157;55.512;37.764;2023-12-22T03:28:10;97690.03;;;-1.47;100.00
44198;BME280;30157;55.512;37.764;2023-12-22T03:30:36;97674.66;;;-1.59;100.00
44198;BME280;30157;55.512;37.764;2023-12-22T03:33:03;97705.28;;;-1.52;100.00
44198;BME280;30157;55.512;37.764;2023-12-22T03:35:29;97647.28;;;-1.85;100.00
44198;BME280;30157;55.512;37.764;2023-12-22T03:37:55;97658.47;;;-1.71;100.00
44198;BME280;30157;55.512;37.764;2023-12-22T03:40:21;97608.22;;;-1.95;100.00
44198;BME280;30157;55.512;37.764;2023-12-22T03:42:46;97685.81;;;-1.46;100.00
44198;BME280;30157;55.512;37.764;2023-12-22T03:45:12;97631.13;;;-1.89;100.00
44198;BME280;30157;55.512;37.764;2023-12-22T03:47:38;97653.41;;;-1.66;100.00
44198;BME280;30157;55.512;37.764;2023-12-22T03:50:03;97602.16;;;-2.06;100.00
44198;BME280;30157;55.512;37.764;2023-12-22T03:52:30;97678.91;;;-1.61;100.00
44198;BME280;30157;55.512;37.764;2023-12-22T03:54:56;97671.28;;;-1.57;100.00
44198;BME280;30157;55.512;37.764;2023-12-22T03:57:21;97672.91;;;-1.66;100.00
44198;BME280;30157;55.512;37.764;2023-12-22T03:59:47;97655.84;;;-1.75;100.00
44198;BME280;30157;55.512;37.764;2023-12-22T04:02:13;97670.41;;;-1.60;100.00
44198;BME280;30157;55.512;37.764;2023-12-22T04:04:39;97637.22;;;-1.74;100.00
44198;BME280;30157;55.512;37.764;2023-12-22T04:07:04;97643.28;;;-1.61;100.00
44198;BME280;30157;55.512;37.764;2023-12-22T04:09:30;97645.88;;;-1.55;100.00
44198;BME280;30157;55.512;37.764;2023-12-22T04:11:56;97653.53;;;-1.52;100.00
44198;BME280;30157;55.512;37.764;2023-12-22T04:14:21;97648.47;;;-1.49;100.00
44198;BME280;30157;55.512;37.764;2023-12-22T04:16:47;97656.13;;;-1.43;100.00
44198;BME280;30157;55.512;37.764;2023-12-22T04:19:13;97641.66;;;-1.53;100.00
44198;BME280;30157;55.512;37.764;2023-12-22T04:21:39;97582.88;;;-1.87;100.00
44198;BME280;30157;55.512;37.764;2023-12-22T04:24:05;97634.84;;;-1.54;100.00
44198;BME280;30157;55.512;37.764;2023-12-22T04:26:31;97568.44;;;-1.90;100.00
44198;BME280;30157;55.512;37.764;2023-12-22T04:28:56;97645.13;;;-1.42;100.00
44198;BME280;30157;55.512;37.764;2023-12-22T04:31:22;97630.66;;;-1.50;100.00
44198;BME280;30157;55.512;37.764;2023-12-22T04:33:48;97618.75;;;-1.55;100.00
44198;BME280;30157;55.512;37.764;2023-12-22T04:36:14;97582.09;;;-1.74;100.00
44198;BME280;30157;55.512;37.764;2023-12-22T04:38:40;97621.41;;;-1.36;100.00
44198;BME280;30157;55.512;37.764;2023-12-22T04:41:06;97615.31;;;-1.58;100.00
44198;BME280;30157;55.512;37.764;2023-12-22T04:43:32;97615.31;;;-1.57;100.00
44198;BME280;30157;55.512;37.764;2023-12-22T04:45:58;97614.53;;;-1.51;100.00
44198;BME280;30157;55.512;37.764;2023-12-22T04:48:23;97582.97;;;-1.76;100.00
44198;BME280;30157;55.512;37.764;2023-12-22T04:50:49;97620.50;;;-1.47;100.00
44198;BME280;30157;55.512;37.764;2023-12-22T04:53:15;97502.91;;;-2.17;100.00
44198;BME280;30157;55.512;37.764;2023-12-22T04:55:40;97613.75;;;-1.44;100.00
44198;BME280;30157;55.512;37.764;2023-12-22T04:58:06;97611.97;;;-1.51;100.00
44198;BME280;30157;55.512;37.764;2023-12-22T05:00:32;97548.97;;;-1.84;100.00
44198;BME280;30157;55.512;37.764;2023-12-22T05:02:58;97599.22;;;-1.57;100.00
44198;BME280;30157;55.512;37.764;2023-12-22T05:05:24;97618.75;;;-1.56;100.00
44198;BME280;30157;55.512;37.764;2023-12-22T05:07:49;97605.97;;;-1.61;100.00
44198;BME280;30157;55.512;37.764;2023-12-22T05:10:15;97632.34;;;-1.49;100.00
44198;BME280;30157;55.512;37.764;2023-12-22T05:12:41;97598.34;;;-1.59;100.00
44198;BME280;30157;55.512;37.764;2023-12-22T05:15:07;97611.06;;;-1.58;100.00
44198;BME280;30157;55.512;37.764;2023-12-22T05:17:32;97530.97;;;-2.08;100.00
44198;BME280;30157;55.512;37.764;2023-12-22T05:19:58;97506.28;;;-2.23;100.00
44198;BME280;30157;55.512;37.764;2023-12-22T05:22:24;97606.03;;;-1.56;100.00
44198;BME280;30157;55.512;37.764;2023-12-22T05:24:50;97573.63;;;-1.73;100.00
44198;BME280;30157;55.512;37.764;2023-12-22T05:27:15;97618.91;;;-1.34;100.00
44198;BME280;30157;55.512;37.764;2023-12-22T05:29:41;97623.19;;;-1.30;100.00
44198;BME280;30157;55.512;37.764;2023-12-22T05:32:07;97642.66;;;-1.34;100.00
44198;BME280;30157;55.512;37.764;2023-12-22T05:34:33;97628.22;;;-1.35;100.00
44198;BME280;30157;55.512;37.764;2023-12-22T05:36:58;97635.91;;;-1.27;100.00
44198;BME280;30157;55.512;37.764;2023-12-22T05:39:24;97613.75;;;-1.45;100.00
44198;BME280;30157;55.512;37.764;2023-12-22T05:41:50;97631.59;;;-1.38;100.00
44198;BME280;30157;55.512;37.764;2023-12-22T05:44:15;97626.47;;;-1.41;100.00
44198;BME280;30157;55.512;37.764;2023-12-22T05:46:41;97621.41;;;-1.39;100.00
44198;BME280;30157;55.512;37.764;2023-12-22T05:49:07;97624.81;;;-1.39;100.00
44198;BME280;30157;55.512;37.764;2023-12-22T05:51:39;97435.72;;;-2.51;100.00
44198;BME280;30157;55.512;37.764;2023-12-22T05:54:07;97602.59;;;-1.57;100.00
44198;BME280;30157;55.512;37.764;2023-12-22T05:56:33;97595.88;;;-1.48;100.00
44198;BME280;30157;55.512;37.764;2023-12-22T05:59:00;97637.63;;;-1.25;100.00
44198;BME280;30157;55.512;37.764;2023-12-22T06:01:25;97585.59;;;-1.65;100.00
44198;BME280;30157;55.512;37.764;2023-12-22T06:03:52;97635.00;;;-1.39;100.00
44198;BME280;30157;55.512;37.764;2023-12-22T06:06:19;97646.91;;;-1.34;100.00
44198;BME280;30157;55.512;37.764;2023-12-22T06:08:45;97624.03;;;-1.27;100.00
44198;BME280;30157;55.512;37.764;2023-12-22T06:11:11;97589.06;;;-1.49;100.00
44198;BME280;30157;55.512;37.764;2023-12-22T06:13:37;97623.19;;;-1.27;100.00
44198;BME280;30157;55.512;37.764;2023-12-22T06:16:03;97654.63;;;-1.21;100.00
44198;BME280;30157;55.512;37.764;2023-12-22T06:18:29;97586.56;;;-1.48;100.00
44198;BME280;30157;55.512;37.764;2023-12-22T06:20:55;97563.63;;;-1.56;100.00
44198;BME280;30157;55.512;37.764;2023-12-22T06:23:21;97635.09;;;-1.23;100.00
44198;BME280;30157;55.512;37.764;2023-12-22T06:25:46;97645.38;;;-1.11;100.00
44198;BME280;30157;55.512;37.764;2023-12-22T06:28:13;97583.16;;;-1.52;100.00
44198;BME280;30157;55.512;37.764;2023-12-22T06:30:42;97616.44;;;-1.24;100.00
44198;BME280;30157;55.512;37.764;2023-12-22T06:33:09;97591.75;;;-1.36;100.00
44198;BME280;30157;55.512;37.764;2023-12-22T06:35:34;97567.91;;;-1.47;100.00
44198;BME280;30157;55.512;37.764;2023-12-22T06:38:00;97628.38;;;-1.12;100.00
44198;BME280;30157;55.512;37.764;2023-12-22T06:40:29;97600.31;;;-1.23;100.00
44198;BME280;30157;55.512;37.764;2023-12-22T06:42:55;97573.16;;;-1.22;100.00
44198;BME280;30157;55.512;37.764;2023-12-22T06:45:20;97643.84;;;-0.82;100.00
44198;BME280;30157;55.512;37.764;2023-12-22T06:47:46;97646.50;;;-0.61;100.00
44198;BME280;30157;55.512;37.764;2023-12-22T06:50:12;97628.75;;;-0.48;100.00
44198;BME280;30157;55.512;37.764;2023-12-22T06:52:37;97616.00;;;-0.45;100.00
44198;BME280;30157;55.512;37.764;2023-12-22T06:55:03;97623.72;;;-0.21;100.00
44198;BME280;30157;55.512;37.764;2023-12-22T06:57:29;97576.91;;;-0.52;100.00
44198;BME280;30157;55.512;37.764;2023-12-22T06:59:55;97620.31;;;-0.32;100.00
44198;BME280;30157;55.512;37.764;2023-12-22T07:02:21;97647.59;;;-0.06;100.00
44198;BME280;30157;55.512;37.764;2023-12-22T07:07:35;97629.72;;;-0.02;98.35
44198;BME280;30157;55.512;37.764;2023-12-22T07:10:02;97621.22;;;-0.13;97.18
44198;BME280;30157;55.512;37.764;2023-12-22T07:12:29;97591.44;;;-0.23;97.74
44198;BME280;30157;55.512;37.764;2023-12-22T07:14:57;97541.22;;;-0.46;97.22
44198;BME280;30157;55.512;37.764;2023-12-22T07:17:22;97645.91;;;1.27;97.11
44198;BME280;30157;55.512;37.764;2023-12-22T07:19:48;97639.00;;;1.62;93.57
44198;BME280;30157;55.512;37.764;2023-12-22T07:22:17;97600.59;;;1.71;93.75
44198;BME280;30157;55.512;37.764;2023-12-22T07:24:43;97587.50;;;2.24;89.15
44198;BME280;30157;55.512;37.764;2023-12-22T07:27:08;97466.84;;;1.52;86.72
44198;BME280;30157;55.512;37.764;2023-12-22T07:29:34;97629.94;;;2.54;87.20
44198;BME280;30157;55.512;37.764;2023-12-22T07:32:00;97618.28;;;2.13;86.57
44198;BME280;30157;55.512;37.764;2023-12-22T07:34:25;97638.09;;;1.74;89.36
44198;BME280;30157;55.512;37.764;2023-12-22T07:36:51;97633.91;;;1.48;90.16
44198;BME280;30157;55.512;37.764;2023-12-22T07:39:18;97623.84;;;0.98;89.87
44198;BME280;30157;55.512;37.764;2023-12-22T07:41:44;97631.47;;;1.03;89.67
44198;BME280;30157;55.512;37.764;2023-12-22T07:44:10;97621.31;;;0.57;89.97
44198;BME280;30157;55.512;37.764;2023-12-22T07:46:36;97630.63;;;0.99;90.09
44198;BME280;30157;55.512;37.764;2023-12-22T07:49:01;97577.06;;;0.36;88.93
44198;BME280;30157;55.512;37.764;2023-12-22T07:51:27;97617.88;;;0.96;87.92
44198;BME280;30157;55.512;37.764;2023-12-22T07:53:53;97597.47;;;0.47;88.30
44198;BME280;30157;55.512;37.764;2023-12-22T07:56:19;97588.13;;;0.43;90.43
44198;BME280;30157;55.512;37.764;2023-12-22T07:58:44;97489.47;;;0.17;90.11
44198;BME280;30157;55.512;37.764;2023-12-22T08:01:10;97591.53;;;0.63;89.10
44198;BME280;30157;55.512;37.764;2023-12-22T08:03:36;97575.19;;;1.32;88.51
44198;BME280;30157;55.512;37.764;2023-12-22T08:06:03;97594.13;;;2.49;84.21
44198;BME280;30157;55.512;37.764;2023-12-22T08:08:29;97583.09;;;2.41;82.60
44198;BME280;30157;55.512;37.764;2023-12-22T08:10:54;97600.50;;;3.03;83.99
44198;BME280;30157;55.512;37.764;2023-12-22T08:13:20;97584.00;;;3.27;81.19
44198;BME280;30157;55.512;37.764;2023-12-22T08:15:46;97526.94;;;3.08;78.45
44198;BME280;30157;55.512;37.764;2023-12-22T08:18:12;97526.47;;;3.48;77.71
44198;BME280;30157;55.512;37.764;2023-12-22T08:20:37;97572.81;;;4.00;76.31
44198;BME280;30157;55.512;37.764;2023-12-22T08:23:03;97582.78;;;4.18;75.06
44198;BME280;30157;55.512;37.764;2023-12-22T08:25:29;97569.50;;;3.90;75.12
44198;BME280;30157;55.512;37.764;2023-12-22T08:27:55;97581.41;;;3.97;76.02
44198;BME280;30157;55.512;37.764;2023-12-22T08:30:22;97591.34;;;3.55;75.04
44198;BME280;30157;55.512;37.764;2023-12-22T08:32:47;97518.09;;;3.32;75.53
44198;BME280;30157;55.512;37.764;2023-12-22T08:35:13;97567.31;;;3.64;76.37
44198;BME280;30157;55.512;37.764;2023-12-22T08:37:39;97582.91;;;4.12;72.97
44198;BME280;30157;55.512;37.764;2023-12-22T08:40:05;97530.72;;;4.10;72.37
44198;BME280;30157;55.512;37.764;2023-12-22T08:42:31;97520.75;;;3.90;72.21
44198;BME280;30157;55.512;37.764;2023-12-22T08:44:57;97563.06;;;4.22;73.26
44198;BME280;30157;55.512;37.764;2023-12-22T08:47:23;97563.94;;;3.60;73.26
44198;BME280;30157;55.512;37.764;2023-12-22T08:49:49;97553.00;;;2.66;74.44
44198;BME280;30157;55.512;37.764;2023-12-22T08:52:15;97534.66;;;3.05;75.95
44198;BME280;30157;55.512;37.764;2023-12-22T08:54:41;97558.25;;;3.35;74.62
44198;BME280;30157;55.512;37.764;2023-12-22T08:57:06;97484.88;;;2.48;74.83
44198;BME280;30157;55.512;37.764;2023-12-22T08:59:32;97550.41;;;2.71;77.41
44198;BME280;30157;55.512;37.764;2023-12-22T09:01:58;97558.19;;;2.59;77.77
44198;BME280;30157;55.512;37.764;2023-12-22T09:04:24;97486.00;;;2.21;76.57
44198;BME280;30157;55.512;37.764;2023-12-22T09:06:50;97556.59;;;2.45;78.78
44198;BME280;30157;55.512;37.764;2023-12-22T09:09:16;97507.50;;;1.98;79.61
44198;BME280;30157;55.512;37.764;2023-12-22T09:11:42;97476.72;;;2.05;78.85
44198;BME280;30157;55.512;37.764;2023-12-22T09:14:08;97555.75;;;2.43;79.11
44198;BME280;30157;55.512;37.764;2023-12-22T09:16:37;97555.78;;;2.42;78.29
44198;BME280;30157;55.512;37.764;2023-12-22T09:19:03;97557.34;;;2.57;77.82
44198;BME280;30157;55.512;37.764;2023-12-22T09:21:30;97533.91;;;1.99;78.85
44198;BME280;30157;55.512;37.764;2023-12-22T09:23:56;97506.91;;;1.59;80.76
44198;BME280;30157;55.512;37.764;2023-12-22T09:26:21;97552.75;;;1.85;80.96
44198;BME280;30157;55.512;37.764;2023-12-22T09:28:47;97546.75;;;1.94;79.05
44198;BME280;30157;55.512;37.764;2023-12-22T09:31:13;97505.91;;;1.82;78.81
44198;BME280;30157;55.512;37.764;2023-12-22T09:33:40;97465.31;;;1.31;79.12
44198;BME280;30157;55.512;37.764;2023-12-22T09:36:06;97539.25;;;1.63;79.88
44198;BME280;30157;55.512;37.764;2023-12-22T09:38:32;97550.31;;;1.65;80.00
44198;BME280;30157;55.512;37.764;2023-12-22T09:40:58;97537.66;;;1.47;80.44
44198;BME280;30157;55.512;37.764;2023-12-22T09:43:24;97517.28;;;1.22;81.49
44198;BME280;30157;55.512;37.764;2023-12-22T09:45:51;97540.34;;;1.07;82.42
44198;BME280;30157;55.512;37.764;2023-12-22T09:48:18;97533.53;;;1.06;82.48
44198;BME280;30157;55.512;37.764;2023-12-22T09:50:46;97484.22;;;0.87;82.60
44198;BME280;30157;55.512;37.764;2023-12-22T09:53:13;97476.63;;;0.68;82.90
44198;BME280;30157;55.512;37.764;2023-12-22T09:55:45;97517.31;;;1.17;82.12
44198;BME280;30157;55.512;37.764;2023-12-22T09:58:14;97525.00;;;1.16;82.37
44198;BME280;30157;55.512;37.764;2023-12-22T10:00:45;97524.09;;;1.31;82.24
44198;BME280;30157;55.512;37.764;2023-12-22T10:03:11;97401.72;;;0.71;81.81
44198;BME280;30157;55.512;37.764;2023-12-22T10:05:40;97448.44;;;0.94;82.03
44198;BME280;30157;55.512;37.764;2023-12-22T10:08:06;97488.41;;;1.03;82.08
44198;BME280;30157;55.512;37.764;2023-12-22T10:10:40;97514.72;;;1.27;81.70
44198;BME280;30157;55.512;37.764;2023-12-22T10:13:07;97517.28;;;1.22;81.43
44198;BME280;30157;55.512;37.764;2023-12-22T10:15:40;97478.22;;;1.02;82.12
44198;BME280;30157;55.512;37.764;2023-12-22T10:18:07;97468.91;;;0.79;82.65
44198;BME280;30157;55.512;37.764;2023-12-22T10:20:34;97449.44;;;0.45;83.02
44198;BME280;30157;55.512;37.764;2023-12-22T10:23:00;97454.53;;;0.52;83.25
44198;BME280;30157;55.512;37.764;2023-12-22T10:25:29;97501.31;;;0.52;84.03
44198;BME280;30157;55.512;37.764;2023-12-22T10:27:56;97480.88;;;0.55;84.00
44198;BME280;30157;55.512;37.764;2023-12-22T10:30:22;97421.41;;;0.27;83.96
44198;BME280;30157;55.512;37.764;2023-12-22T10:32:51;97429.94;;;0.20;84.28
44198;BME280;30157;55.512;37.764;2023-12-22T10:35:20;97441.03;;;0.02;85.16
44198;BME280;30157;55.512;37.764;2023-12-22T10:37:45;97429.13;;;-0.10;86.97
44198;BME280;30157;55.512;37.764;2023-12-22T10:40:12;97469.88;;;0.25;85.85
44198;BME280;30157;55.512;37.764;2023-12-22T10:42:40;97466.50;;;0.08;86.49
44198;BME280;30157;55.512;37.764;2023-12-22T10:45:07;97488.59;;;0.29;86.42
44198;BME280;30157;55.512;37.764;2023-12-22T10:47:33;97482.66;;;0.22;85.93
44198;BME280;30157;55.512;37.764;2023-12-22T10:50:05;97474.16;;;0.17;85.91
44198;BME280;30157;55.512;37.764;2023-12-22T10:52:31;97466.50;;;-0.03;86.75
44198;BME280;30157;55.512;37.764;2023-12-22T10:54:58;97486.06;;;-0.02;87.37
44198;BME280;30157;55.512;37.764;2023-12-22T10:57:24;97416.38;;;-0.41;87.57
44198;BME280;30157;55.512;37.764;2023-12-22T10:59:50;97488.59;;;0.10;87.43
44198;BME280;30157;55.512;37.764;2023-12-22T11:02:17;97459.69;;;-0.06;87.42
44198;BME280;30157;55.512;37.764;2023-12-22T11:05:03;97412.09;;;-0.39;87.42
44198;BME280;30157;55.512;37.764;2023-12-22T11:07:36;97410.41;;;-0.49;87.65
44198;BME280;30157;55.512;37.764;2023-12-22T11:10:06;97490.31;;;-0.12;88.30
44198;BME280;30157;55.512;37.764;2023-12-22T11:12:35;97475.88;;;-0.14;88.49
44198;BME280;30157;55.512;37.764;2023-12-22T11:15:03;97480.97;;;-0.13;89.04
44198;BME280;30157;55.512;37.764;2023-12-22T11:17:32;97490.31;;;-0.10;88.92
44198;BME280;30157;55.512;37.764;2023-12-22T11:19:59;97463.94;;;-0.22;89.01
44198;BME280;30157;55.512;37.764;2023-12-22T11:22:25;97482.66;;;-0.24;89.62
44198;BME280;30157;55.512;37.764;2023-12-22T11:24:51;97469.91;;;-0.24;89.51
44198;BME280;30157;55.512;37.764;2023-12-22T11:27:19;97461.38;;;-0.34;89.75
44198;BME280;30157;55.512;37.764;2023-12-22T11:29:47;97491.16;;;-0.16;89.66
44198;BME280;30157;55.512;37.764;2023-12-22T11:32:15;97459.69;;;-0.29;89.47
44198;BME280;30157;55.512;37.764;2023-12-22T11:34:46;97444.38;;;-0.49;89.99
44198;BME280;30157;55.512;37.764;2023-12-22T11:37:14;97429.09;;;-0.66;90.30
44198;BME280;30157;55.512;37.764;2023-12-22T11:39:41;97446.03;;;-0.74;90.73
44198;BME280;30157;55.512;37.764;2023-12-22T11:42:08;97494.50;;;-0.42;90.71
44198;BME280;30157;55.512;37.764;2023-12-22T11:44:36;97498.72;;;-0.59;92.28
44198;BME280;30157;55.512;37.764;2023-12-22T11:47:06;97478.34;;;-0.61;91.56
44198;BME280;30157;55.512;37.764;2023-12-22T11:49:36;97480.06;;;-0.54;91.75
44198;BME280;30157;55.512;37.764;2023-12-22T11:52:18;97298.13;;;-1.72;91.69
44198;BME280;30157;55.512;37.764;2023-12-22T11:54:47;97475.78;;;-0.62;92.40
44198;BME280;30157;55.512;37.764;2023-12-22T12:02:54;97480.03;;;-0.75;93.45
44198;BME280;30157;55.512;37.764;2023-12-22T12:05:20;97450.25;;;-0.81;93.44
44198;BME280;30157;55.512;37.764;2023-12-22T12:07:47;97395.84;;;-1.17;93.43
44198;BME280;30157;55.512;37.764;2023-12-22T12:10:52;97477.47;;;-0.71;93.80
44198;BME280;30157;55.512;37.764;2023-12-22T12:13:25;97464.72;;;-0.69;93.53
44198;BME280;30157;55.512;37.764;2023-12-22T12:15:52;97412.84;;;-1.10;93.74
44198;BME280;30157;55.512;37.764;2023-12-22T12:18:22;97417.94;;;-1.10;94.34
44198;BME280;30157;55.512;37.764;2023-12-22T12:20:51;97451.97;;;-0.78;94.22
44198;BME280;30157;55.512;37.764;2023-12-22T12:23:17;97457.94;;;-0.62;94.18
44198;BME280;30157;55.512;37.764;2023-12-22T12:25:43;97449.47;;;-0.61;94.53
44198;BME280;30157;55.512;37.764;2023-12-22T12:28:09;97442.66;;;-0.59;94.25
44198;BME280;30157;55.512;37.764;2023-12-22T12:30:36;97389.16;;;-0.78;94.05
44198;BME280;30157;55.512;37.764;2023-12-22T12:33:11;97414.63;;;-0.59;94.10
44198;BME280;30157;55.512;37.764;2023-12-22T12:35:41;97429.09;;;-0.51;94.33
44198;BME280;30157;55.512;37.764;2023-12-22T12:38:10;97436.75;;;-0.37;94.10
44198;BME280;30157;55.512;37.764;2023-12-22T12:40:39;97368.75;;;-0.84;94.47
44198;BME280;30157;55.512;37.764;2023-12-22T12:43:06;97339.81;;;-1.20;95.78
44198;BME280;30157;55.512;37.764;2023-12-22T12:45:32;97423.16;;;-0.60;95.85
44198;BME280;30157;55.512;37.764;2023-12-22T12:47:58;97419.75;;;-0.65;95.73
44198;BME280;30157;55.512;37.764;2023-12-22T12:50:25;97395.94;;;-0.74;95.89
44198;BME280;30157;55.512;37.764;2023-12-22T12:52:52;97427.41;;;-0.58;96.33
44198;BME280;30157;55.512;37.764;2023-12-22T12:55:23;97360.28;;;-0.85;96.50
44198;BME280;30157;55.512;37.764;2023-12-22T12:57:53;97390.00;;;-0.70;96.50